Time;durP1;ratioP1;P1;durP2;ratioP2;P2;SDS_P1;SDS_P2;PMS_P1;PMS_P2;Temp;Humidity;BMP_temperature;BMP_pressure;BME280_temperature;BME280_humidity;BME280_pressure;Samples;Min_cycle;Max_cycle;Signal;HPM_P1;HPM_P2
2023/01/11 00:00:35;;;;;;;4.63;1.40;;;18.10;55.10;;;;;;4980182;28;20168;-86
2023/01/11 00:03:02;;;;;;;3.75;1.50;;;18.10;55.10;;;;;;4964597;28;20239;-85
2023/01/11 00:05:28;;;;;;;2.70;1.55;;;18.10;55.10;;;;;;4980410;28;20167;-85
2023/01/11 00:07:55;;;;;;;2.53;1.30;;;18.00;55.70;;;;;;4979978;28;20202;-85
2023/01/11 00:10:22;;;;;;;5.85;1.58;;;18.00;55.10;;;;;;4980098;28;20634;-85
2023/01/11 00:12:47;;;;;;;2.72;1.38;;;18.00;55.20;;;;;;4996188;28;20618;-86
2023/01/11 00:15:13;;;;;;;2.22;1.25;;;18.00;55.20;;;;;;4980068;28;20165;-86
2023/01/11 00:17:40;;;;;;;2.53;1.40;;;18.00;55.10;;;;;;4963855;28;20266;-86
2023/01/11 00:20:10;;;;;;;2.15;1.30;;;18.00;55.00;;;;;;4980572;28;20156;-85
2023/01/11 00:22:36;;;;;;;4.63;1.50;;;18.00;55.10;;;;;;4980462;28;20175;-86
2023/01/11 00:25:03;;;;;;;1.77;1.10;;;18.00;55.10;;;;;;4968866;28;20281;-86
2023/01/11 00:27:29;;;;;;;3.38;1.60;;;18.10;55.20;;;;;;4976568;28;20204;-86
2023/01/11 00:29:57;;;;;;;4.38;1.40;;;18.00;55.30;;;;;;4961003;28;20175;-86
2023/01/11 00:32:23;;;;;;;3.58;1.20;;;17.90;55.20;;;;;;4976464;28;20163;-85
2023/01/11 00:34:49;;;;;;;3.08;1.50;;;17.90;55.10;;;;;;4960527;28;20239;-86
2023/01/11 00:37:15;;;;;;;3.03;1.40;;;18.00;55.20;;;;;;4960296;28;20168;-86
2023/01/11 00:39:44;;;;;;;2.90;1.52;;;18.00;55.20;;;;;;4976690;28;20160;-87
2023/01/11 00:50:09;;;;;;;3.88;1.75;;;17.90;55.10;;;;;;4968312;28;20523;-86
2023/01/11 00:52:36;;;;;;;5.82;1.45;;;17.90;55.20;;;;;;4980733;28;20527;-86
2023/01/11 00:55:04;;;;;;;2.15;1.30;;;18.00;55.20;;;;;;4948570;28;20160;-86
2023/01/11 00:57:29;;;;;;;5.47;1.92;;;17.90;55.00;;;;;;4964463;28;20193;-85
2023/01/11 00:59:56;;;;;;;2.67;1.17;;;17.90;55.10;;;;;;4964266;28;20160;-87
2023/01/11 01:02:22;;;;;;;3.97;1.70;;;18.00;55.10;;;;;;4964231;28;20160;-85
2023/01/11 01:04:47;;;;;;;3.97;1.58;;;18.00;55.10;;;;;;4980250;28;20192;-85
2023/01/11 01:07:13;;;;;;;2.53;1.38;;;18.00;55.10;;;;;;4947969;28;20192;-85
2023/01/11 01:09:40;;;;;;;3.47;1.60;;;17.90;55.00;;;;;;4947995;28;20164;-86
2023/01/11 01:12:07;;;;;;;2.13;1.40;;;18.00;55.00;;;;;;4948502;28;20156;-86
2023/01/11 01:14:33;;;;;;;3.45;1.70;;;18.00;55.00;;;;;;4948424;28;20211;-86
2023/01/11 01:17:01;;;;;;;3.97;1.50;;;18.00;55.00;;;;;;4947764;28;20164;-85
2023/01/11 01:19:27;;;;;;;2.42;1.40;;;18.00;55.00;;;;;;4948303;28;20163;-86
2023/01/11 01:21:55;;;;;;;3.67;1.42;;;18.00;55.00;;;;;;4980335;28;20638;-86
2023/01/11 01:24:20;;;;;;;1.90;1.35;;;18.00;55.00;;;;;;4949520;28;20315;-86
2023/01/11 01:26:47;;;;;;;3.70;1.25;;;18.00;55.00;;;;;;4963616;28;20270;-86
2023/01/11 01:29:14;;;;;;;3.05;1.50;;;18.00;55.10;;;;;;4979676;28;20695;-86
2023/01/11 01:31:41;;;;;;;4.22;1.42;;;17.90;55.00;;;;;;4997057;28;20152;-85
2023/01/11 01:34:08;;;;;;;3.47;1.48;;;17.90;55.10;;;;;;4963569;28;20692;-86
2023/01/11 01:36:35;;;;;;;2.75;1.50;;;17.80;55.10;;;;;;4947743;28;20175;-86
2023/01/11 01:39:01;;;;;;;2.05;1.20;;;17.90;55.20;;;;;;4963920;28;20697;-86
2023/01/11 01:41:27;;;;;;;3.30;1.20;;;17.90;55.10;;;;;;4947263;28;20235;-86
2023/01/11 01:43:56;;;;;;;2.92;1.25;;;17.90;55.20;;;;;;4947951;28;20172;-86
2023/01/11 01:46:26;;;;;;;3.22;1.30;;;17.90;55.10;;;;;;4947810;28;20203;-85
2023/01/11 01:48:59;;;;;;;1.58;1.20;;;17.90;55.20;;;;;;4947577;28;20192;-86
2023/01/11 01:51:40;;;;;;;3.88;1.17;;;17.90;55.20;;;;;;4963030;28;20542;-87
2023/01/11 01:54:07;;;;;;;3.28;1.40;;;17.90;55.10;;;;;;4947579;28;20168;-86
2023/01/11 01:56:39;;;;;;;2.65;1.38;;;17.90;55.10;;;;;;4947318;28;20175;-86
2023/01/11 01:59:07;;;;;;;2.08;1.40;;;17.90;55.10;;;;;;4963462;28;20776;-85
2023/01/11 02:01:48;;;;;;;2.13;1.50;;;17.90;55.10;;;;;;4947465;28;20172;-86
2023/01/11 02:04:22;;;;;;;2.25;1.10;;;17.90;55.20;;;;;;4964727;28;20175;-86
2023/01/11 02:06:47;;;;;;;4.20;1.40;;;17.90;55.10;;;;;;4947086;28;20200;-86
2023/01/11 02:09:35;;;;;;;3.22;1.40;;;17.90;55.20;;;;;;4963038;28;20657;-86
2023/01/11 02:12:01;;;;;;;2.45;1.30;;;17.90;55.30;;;;;;4979203;28;20168;-86
2023/01/11 02:14:29;;;;;;;2.70;1.27;;;17.80;55.10;;;;;;4963097;28;20568;-86
2023/01/11 02:16:54;;;;;;;2.67;1.40;;;17.80;55.10;;;;;;4946822;28;20183;-85
2023/01/11 02:19:28;;;;;;;3.28;1.58;;;17.90;55.20;;;;;;4963840;28;20176;-86
2023/01/11 02:21:56;;;;;;;2.22;1.50;;;17.80;55.40;;;;;;4947324;28;20168;-85
2023/01/11 02:24:40;;;;;;;1.60;1.20;;;17.80;55.30;;;;;;4982229;28;20219;-86
2023/01/11 02:27:22;;;;;;;2.60;1.33;;;17.80;55.50;;;;;;4982407;28;20202;-87
2023/01/11 02:30:22;;;;;;;2.45;1.40;;;17.80;55.40;;;;;;4983216;28;20159;-86
2023/01/11 02:33:06;;;;;;;1.67;1.20;;;17.80;55.50;;;;;;5015456;28;20160;-87
2023/01/11 02:35:49;;;;;;;1.48;1.00;;;17.80;55.30;;;;;;4997943;28;20160;-86
2023/01/11 02:38:37;;;;;;;2.47;1.30;;;17.70;55.30;;;;;;4981594;28;20167;-87
2023/01/11 02:41:13;;;;;;;2.08;1.20;;;17.80;55.50;;;;;;5015421;28;20630;-86
2023/01/11 02:46:33;;;;;;;3.70;1.27;;;17.80;55.30;;;;;;4986286;28;20191;-86
2023/01/11 02:49:16;;;;;;;1.92;1.30;;;17.70;55.40;;;;;;4982070;28;20603;-85
2023/01/11 02:51:47;;;;;;;4.95;1.45;;;17.80;55.50;;;;;;4981413;28;20168;-86
2023/01/11 02:54:13;;;;;;;3.55;1.50;;;17.70;55.50;;;;;;4981869;28;20173;-86
2023/01/11 02:56:40;;;;;;;1.90;1.40;;;17.70;55.40;;;;;;4966034;28;20590;-86
2023/01/11 02:59:08;;;;;;;2.78;1.20;;;17.70;55.50;;;;;;4965512;28;20548;-86
2023/01/11 03:01:43;;;;;;;1.52;1.00;;;17.60;55.50;;;;;;4981672;28;20570;-85
2023/01/11 03:04:24;;;;;;;1.88;1.45;;;17.70;55.50;;;;;;4965181;28;20171;-86
2023/01/11 03:06:51;;;;;;;1.95;1.45;;;17.70;55.40;;;;;;4981066;28;20203;-86
2023/01/11 03:09:18;;;;;;;2.83;1.52;;;17.70;55.40;;;;;;4997136;28;20210;-86
2023/01/11 03:14:48;;;;;;;2.67;1.50;;;17.70;55.60;;;;;;4986436;28;20576;-86
2023/01/11 03:17:41;;;;;;;2.05;1.23;;;17.70;55.70;;;;;;4965485;28;20181;-86
2023/01/11 03:20:29;;;;;;;2.53;1.27;;;17.70;55.80;;;;;;4968529;28;20221;-86
2023/01/11 03:23:03;;;;;;;1.40;1.00;;;17.70;55.60;;;;;;4983667;28;20175;-85
2023/01/11 03:25:39;;;;;;;3.08;1.25;;;17.70;55.50;;;;;;4981217;28;20763;-86
2023/01/11 03:28:32;;;;;;;4.07;1.42;;;17.70;55.50;;;;;;4981800;28;20190;-86
2023/01/11 03:31:20;;;;;;;3.03;1.20;;;17.70;55.60;;;;;;4999800;28;20606;-86
2023/01/11 03:34:12;;;;;;;3.45;1.63;;;17.60;55.60;;;;;;4980974;28;20192;-87
2023/01/11 03:36:42;;;;;;;3.40;1.23;;;17.60;55.70;;;;;;4968305;28;20593;-86
2023/01/11 03:39:28;;;;;;;2.63;1.40;;;17.70;55.50;;;;;;4966966;28;20276;-86
2023/01/11 03:41:56;;;;;;;2.63;1.30;;;17.70;55.80;;;;;;5003228;28;20171;-85
2023/01/11 03:44:23;;;;;;;2.47;1.40;;;17.60;55.70;;;;;;4971111;28;20171;-85
2023/01/11 03:46:51;;;;;;;2.63;1.10;;;17.60;55.90;;;;;;4971174;28;20282;-86
2023/01/11 03:49:30;;;;;;;2.00;1.35;;;17.60;55.80;;;;;;4970634;28;20170;-86
2023/01/11 03:51:57;;;;;;;1.33;1.00;;;17.60;55.70;;;;;;4964467;28;20626;-87
2023/01/11 03:54:24;;;;;;;2.97;1.40;;;17.60;55.90;;;;;;4964573;28;20195;-86
2023/01/11 03:57:12;;;;;;;3.90;1.48;;;17.60;55.90;;;;;;4996474;28;20250;-87
2023/01/11 03:59:37;;;;;;;2.83;1.52;;;17.50;55.90;;;;;;4996420;28;20241;-86
2023/01/11 04:02:04;;;;;;;2.30;1.23;;;17.50;55.90;;;;;;4980730;28;20610;-86
2023/01/11 04:04:34;;;;;;;2.50;1.30;;;17.60;55.80;;;;;;4981097;28;20629;-87
2023/01/11 04:07:04;;;;;;;2.58;1.50;;;17.50;55.90;;;;;;4980434;28;20199;-86
2023/01/11 04:09:29;;;;;;;2.78;1.42;;;17.50;55.80;;;;;;4996505;28;20156;-85
2023/01/11 04:11:56;;;;;;;3.08;1.23;;;17.60;55.90;;;;;;4980144;28;20170;-86
2023/01/11 04:14:25;;;;;;;2.38;1.20;;;17.50;55.70;;;;;;4964047;28;20255;-86
2023/01/11 04:16:51;;;;;;;2.83;1.10;;;17.60;55.80;;;;;;4964151;28;20173;-86
2023/01/11 04:19:18;;;;;;;2.20;1.10;;;17.50;55.90;;;;;;4980151;28;20167;-85
2023/01/11 04:21:44;;;;;;;4.10;1.42;;;17.40;55.90;;;;;;4979195;28;20159;-86
2023/01/11 04:24:09;;;;;;;2.90;1.20;;;17.50;56.00;;;;;;4961996;28;20171;-86
2023/01/11 04:26:35;;;;;;;3.38;1.30;;;17.50;56.00;;;;;;4960599;28;20220;-85
2023/01/11 04:29:01;;;;;;;1.92;1.30;;;17.50;56.60;;;;;;4960462;28;20271;-85
2023/01/11 04:31:28;;;;;;;4.80;1.35;;;17.50;55.80;;;;;;4976524;28;20160;-85
2023/01/11 04:33:53;;;;;;;2.13;1.42;;;17.50;55.90;;;;;;4960441;28;20176;-86
2023/01/11 04:36:19;;;;;;;1.52;1.30;;;17.50;56.10;;;;;;4960382;28;20649;-86
2023/01/11 04:38:44;;;;;;;1.92;1.30;;;17.50;56.10;;;;;;4976410;28;20211;-86
2023/01/11 04:43:54;;;;;;;3.08;1.20;;;17.50;56.00;;;;;;4963192;28;20242;-86
2023/01/11 04:46:22;;;;;;;1.55;1.17;;;17.50;56.00;;;;;;4960253;28;20558;-86
2023/01/11 04:48:48;;;;;;;2.00;1.20;;;17.40;55.90;;;;;;4944435;28;20166;-86
2023/01/11 04:51:14;;;;;;;1.38;1.20;;;17.40;56.00;;;;;;4960601;28;20170;-86
2023/01/11 04:53:39;;;;;;;1.42;1.25;;;17.50;56.00;;;;;;4944316;28;20160;-86
2023/01/11 04:56:06;;;;;;;2.33;1.20;;;17.40;56.00;;;;;;4960299;28;20156;-87
2023/01/11 04:58:33;;;;;;;2.97;1.42;;;17.40;56.10;;;;;;4944535;28;20178;-86
2023/01/11 05:00:58;;;;;;;2.20;1.15;;;17.50;55.90;;;;;;4944222;28;20167;-86
2023/01/11 05:03:25;;;;;;;1.73;1.20;;;17.50;56.10;;;;;;4960599;28;20171;-86
2023/01/11 05:05:56;;;;;;;2.22;1.02;;;17.50;55.80;;;;;;4976285;28;20191;-86
2023/01/11 05:08:23;;;;;;;3.38;1.35;;;17.50;55.90;;;;;;4976557;28;20160;-87
2023/01/11 05:10:52;;;;;;;1.63;1.40;;;17.50;55.80;;;;;;4944467;28;20388;-85
2023/01/11 05:13:18;;;;;;;2.08;1.00;;;17.60;55.80;;;;;;4976457;28;20152;-86
2023/01/11 05:15:44;;;;;;;2.15;1.52;;;17.50;55.90;;;;;;4943861;28;20184;-85
2023/01/11 05:18:11;;;;;;;3.28;1.40;;;17.50;55.80;;;;;;4960349;28;20215;-86
2023/01/11 05:20:36;;;;;;;2.70;1.27;;;17.50;55.80;;;;;;4960106;28;20176;-87
2023/01/11 05:23:02;;;;;;;3.30;1.45;;;17.40;55.80;;;;;;4959984;28;20168;-87
2023/01/11 05:25:27;;;;;;;3.33;1.30;;;17.50;56.00;;;;;;4972229;28;20233;-86
2023/01/11 05:27:57;;;;;;;2.33;1.27;;;17.50;56.00;;;;;;4979265;28;20225;-86
2023/01/11 05:30:23;;;;;;;2.35;1.38;;;17.40;55.80;;;;;;4995698;28;20148;-86
2023/01/11 05:32:50;;;;;;;2.22;1.30;;;17.40;56.00;;;;;;4964855;28;20167;-86
2023/01/11 05:35:16;;;;;;;1.52;1.08;;;17.40;55.90;;;;;;4998935;28;20235;-86
2023/01/11 05:37:42;;;;;;;1.75;1.20;;;17.40;56.00;;;;;;4999416;28;20576;-86
2023/01/11 05:40:09;;;;;;;2.63;1.30;;;17.40;56.00;;;;;;4982855;28;20214;-85
2023/01/11 05:42:34;;;;;;;2.58;1.10;;;17.40;55.90;;;;;;4982655;28;20210;-86
2023/01/11 05:47:46;;;;;;;2.38;1.20;;;17.40;55.80;;;;;;5016272;28;20234;-86
2023/01/11 05:50:12;;;;;;;1.40;1.10;;;17.40;56.00;;;;;;4982945;28;20545;-86
2023/01/11 05:52:38;;;;;;;1.75;1.08;;;17.30;56.00;;;;;;4982384;28;20176;-85
2023/01/11 05:55:04;;;;;;;1.40;1.00;;;17.40;56.00;;;;;;4998786;28;20162;-86
2023/01/11 05:57:30;;;;;;;3.15;1.40;;;17.20;55.80;;;;;;4983081;28;20238;-86
2023/01/11 05:59:55;;;;;;;2.92;1.45;;;17.30;56.00;;;;;;4966285;28;20677;-86
2023/01/11 06:02:21;;;;;;;2.63;1.10;;;17.30;56.00;;;;;;4982468;28;20152;-87
2023/01/11 06:04:47;;;;;;;3.13;1.45;;;17.30;56.30;;;;;;4982428;28;20196;-86
2023/01/11 06:07:13;;;;;;;1.90;1.10;;;17.30;56.10;;;;;;4998753;28;20183;-86
2023/01/11 06:09:39;;;;;;;4.53;1.30;;;17.30;56.10;;;;;;4982973;28;20171;-87
2023/01/11 06:12:06;;;;;;;2.28;1.30;;;17.30;56.00;;;;;;5000723;28;20160;-84
2023/01/11 06:14:32;;;;;;;1.88;1.30;;;17.30;56.20;;;;;;4985003;28;20175;-86
2023/01/11 06:17:01;;;;;;;2.42;1.40;;;17.30;56.10;;;;;;4983769;28;20175;-85
2023/01/11 06:19:27;;;;;;;1.60;1.17;;;17.20;56.20;;;;;;4983933;28;20191;-85
2023/01/11 06:21:53;;;;;;;2.42;1.25;;;17.30;56.20;;;;;;5000166;28;20202;-85
2023/01/11 06:24:19;;;;;;;1.90;1.10;;;17.30;56.30;;;;;;4997022;28;20251;-84
2023/01/11 06:26:44;;;;;;;1.75;1.10;;;17.30;56.00;;;;;;4964944;28;20198;-85
2023/01/11 06:29:10;;;;;;;1.40;1.30;;;17.30;56.00;;;;;;4965137;28;20600;-84
2023/01/11 06:31:36;;;;;;;1.95;1.20;;;17.30;56.20;;;;;;4980245;28;20195;-85
2023/01/11 06:34:02;;;;;;;2.42;1.23;;;17.30;56.20;;;;;;4981074;28;20619;-84
2023/01/11 06:36:28;;;;;;;2.97;1.20;;;17.30;56.20;;;;;;4996837;28;20231;-85
2023/01/11 06:38:54;;;;;;;2.05;1.30;;;17.20;56.20;;;;;;4963268;28;20179;-84
2023/01/11 06:41:20;;;;;;;2.63;1.10;;;17.30;56.20;;;;;;4962530;28;20176;-85
2023/01/11 06:43:46;;;;;;;2.47;1.40;;;17.30;56.00;;;;;;4962531;28;20164;-85
2023/01/11 06:46:12;;;;;;;1.73;1.40;;;17.30;56.00;;;;;;4962836;28;20256;-85
2023/01/11 06:48:38;;;;;;;1.90;1.00;;;17.30;56.30;;;;;;4979135;28;20149;-85
2023/01/11 06:51:04;;;;;;;2.53;1.48;;;17.30;56.00;;;;;;4946489;28;20168;-84
2023/01/11 06:53:30;;;;;;;1.50;1.35;;;17.30;56.10;;;;;;4962525;28;20493;-85
2023/01/11 06:55:56;;;;;;;2.65;1.30;;;17.30;56.20;;;;;;4978906;28;20156;-85
2023/01/11 06:58:23;;;;;;;1.63;1.10;;;17.20;56.00;;;;;;4946629;28;20176;-85
2023/01/11 07:00:49;;;;;;;3.95;1.40;;;17.20;56.30;;;;;;4980061;28;20231;-84
2023/01/11 07:03:26;;;;;;;2.47;1.40;;;17.20;56.20;;;;;;4949895;28;20176;-83
2023/01/11 07:05:55;;;;;;;1.67;1.10;;;17.20;56.00;;;;;;4890023;29;20215;-84
2023/01/11 07:09:06;;;;;;;;;;;;;;;;;;;;;
2023/01/11 07:11:49;;;;;;;1.40;1.10;;;17.20;56.10;;;;;;4865854;29;20644;-85
2023/01/11 07:14:49;;;;;;;2.08;1.50;;;17.30;56.00;;;;;;4816145;29;20193;-85
2023/01/11 07:17:24;;;;;;;1.58;1.17;;;17.30;56.10;;;;;;4782848;30;20204;-85
2023/01/11 07:20:47;;;;;;;2.05;1.38;;;17.30;55.70;;;;;;4766179;30;20187;-85
2023/01/11 07:23:30;;;;;;;;;;;;;;;;;;;;;
2023/01/11 07:26:15;;;;;;;1.65;1.10;;;17.30;55.90;;;;;;4770666;30;20233;-87
2023/01/11 07:28:53;;;;;;;;;;;;;;;;;;;;;
2023/01/11 07:31:22;;;;;;;2.53;1.20;;;17.40;55.80;;;;;;4790058;29;20201;-88
2023/01/11 07:38:10;;;;;;;;;;;;;;;;;;;;;
2023/01/11 07:51:55;;;;;;;;;;;;;;;;;;;;;
2023/01/11 07:57:20;;;;;;;1.90;1.10;;;17.70;54.80;;;;;;4648697;30;20670;-86
2023/01/11 08:00:47;;;;;;;;;;;;;;;;;;;;;
2023/01/11 08:31:00;;;;;;;2.20;1.25;;;17.90;54.80;;;;;;4798735;30;20314;-84
2023/01/11 08:33:27;;;;;;;1.15;0.98;;;17.90;54.80;;;;;;4846249;29;20194;-83
2023/01/11 08:36:31;;;;;;;;;;;;;;;;;;;;;
2023/01/11 08:39:58;;;;;;;;;;;;;;;;;;;;;
2023/01/11 08:42:31;;;;;;;2.17;1.30;;;18.00;54.70;;;;;;4876262;29;20214;-85
2023/01/11 08:45:01;;;;;;;1.92;1.00;;;18.10;54.50;;;;;;4864602;29;20220;-85
2023/01/11 08:47:45;;;;;;;1.80;1.20;;;18.20;54.30;;;;;;4840394;29;20221;-84
2023/01/11 08:50:17;;;;;;;1.98;1.23;;;18.20;54.20;;;;;;4842533;29;20279;-85
2023/01/11 08:52:44;;;;;;;3.40;1.10;;;18.10;54.90;;;;;;4827782;29;20169;-85
2023/01/11 08:55:10;;;;;;;3.20;1.08;;;18.20;54.40;;;;;;4842375;29;20185;-85
2023/01/11 08:58:05;;;;;;;;;;;;;;;;;;;;;
2023/01/11 09:00:41;;;;;;;1.33;1.00;;;18.20;54.20;;;;;;4822342;29;20218;-85
2023/01/11 09:03:12;;;;;;;4.22;1.20;;;18.20;54.20;;;;;;4770313;30;20203;-85
2023/01/11 09:05:40;;;;;;;2.00;0.90;;;18.20;54.20;;;;;;4783121;30;20188;-86
2023/01/11 09:08:09;;;;;;;4.32;1.38;;;18.20;54.20;;;;;;4783082;30;20234;-87
2023/01/11 09:10:35;;;;;;;3.22;1.00;;;18.20;54.60;;;;;;4817357;29;20182;-86
2023/01/11 09:13:05;;;;;;;4.90;0.90;;;18.20;54.60;;;;;;4836246;29;20215;-85
2023/01/11 09:15:35;;;;;;;2.88;0.98;;;18.20;54.40;;;;;;4882130;29;20714;-86
2023/01/11 09:18:04;;;;;;;6.07;1.25;;;18.20;54.60;;;;;;4898519;29;20215;-85
2023/01/11 09:20:32;;;;;;;5.05;1.17;;;18.30;54.50;;;;;;4897162;29;20191;-85
2023/01/11 09:23:05;;;;;;;4.45;0.90;;;18.20;54.60;;;;;;4879828;29;20262;-85
2023/01/11 09:26:18;;;;;;;7.75;1.25;;;18.30;54.60;;;;;;4897441;29;20255;-85
2023/01/11 09:28:44;;;;;;;2.55;0.70;;;18.30;54.20;;;;;;4854201;29;20234;-84
2023/01/11 09:31:13;;;;;;;3.03;1.20;;;18.30;54.30;;;;;;4849211;29;20707;-83
2023/01/11 09:33:39;;;;;;;5.80;1.25;;;18.30;54.30;;;;;;4886331;29;20569;-84
2023/01/11 09:36:17;;;;;;;3.05;1.17;;;18.30;54.60;;;;;;4897300;29;20179;-84
2023/01/11 09:38:47;;;;;;;6.55;1.48;;;18.30;54.40;;;;;;4911712;29;20186;-84
2023/01/11 09:41:55;;;;;;;10.63;1.42;;;18.20;54.80;;;;;;4899662;29;20547;-84
2023/01/11 09:44:29;;;;;;;2.92;1.00;;;18.20;55.00;;;;;;4836803;29;20325;-83
2023/01/11 09:47:45;;;;;;;5.38;1.20;;;18.20;55.00;;;;;;4824267;29;20213;-84
2023/01/11 09:50:24;;;;;;;4.20;1.15;;;18.20;55.00;;;;;;4837375;29;20158;-85
2023/01/11 09:53:23;;;;;;;4.00;1.17;;;18.20;54.70;;;;;;4837766;29;20182;-83
2023/01/11 09:55:53;;;;;;;5.35;1.00;;;18.30;54.90;;;;;;4839612;29;20154;-84
2023/01/11 09:58:37;;;;;;;8.07;1.27;;;18.30;54.60;;;;;;4824108;29;20182;-82
2023/01/11 10:01:20;;;;;;;9.05;1.02;;;18.30;54.70;;;;;;4836617;29;20174;-84
2023/01/11 10:04:24;;;;;;;5.10;1.20;;;18.30;54.60;;;;;;4837470;29;20196;-84
2023/01/11 10:07:13;;;;;;;5.30;1.20;;;18.30;55.00;;;;;;4877015;29;20211;-84
2023/01/11 10:09:48;;;;;;;5.43;1.42;;;18.30;54.60;;;;;;4869312;29;20618;-84
2023/01/11 10:12:46;;;;;;;3.38;1.08;;;18.30;54.80;;;;;;4845211;29;20180;-84
2023/01/11 10:15:19;;;;;;;3.22;1.13;;;18.20;54.70;;;;;;4934155;28;20265;-83
2023/01/11 10:18:18;;;;;;;8.45;1.58;;;18.30;54.60;;;;;;4954055;28;20286;-84
2023/01/11 10:21:15;;;;;;;5.22;1.10;;;18.30;54.70;;;;;;4988319;28;20173;-83
2023/01/11 10:23:52;;;;;;;6.50;1.20;;;18.30;54.80;;;;;;4962214;29;20232;-85
2023/01/11 10:26:26;;;;;;;3.80;1.00;;;18.30;55.00;;;;;;4946240;29;20321;-84
2023/01/11 10:37:43;;;;;;;4.80;1.20;;;18.30;55.00;;;;;;4915576;29;20539;-86
2023/01/11 10:41:01;;;;;;;2.72;1.05;;;18.30;55.10;;;;;;4926738;29;20178;-85
2023/01/11 10:43:19;;;;;;;4.35;1.10;;;18.30;55.00;;;;;;4925859;29;20273;-85
2023/01/11 10:45:50;;;;;;;4.05;1.20;;;18.30;55.00;;;;;;4910084;29;20257;-85
2023/01/11 10:48:46;;;;;;;3.95;1.20;;;18.30;55.10;;;;;;4909892;29;20224;-85
2023/01/11 10:51:36;;;;;;;4.10;0.80;;;18.40;55.10;;;;;;4872228;29;20188;-85
2023/01/11 10:54:19;;;;;;;3.63;0.85;;;18.30;55.00;;;;;;4881126;29;20179;-85
2023/01/11 10:57:14;;;;;;;3.35;1.00;;;18.40;55.00;;;;;;4889654;29;20175;-85
2023/01/11 10:59:48;;;;;;;3.20;1.00;;;18.30;55.10;;;;;;4915150;29;20190;-86
2023/01/11 11:02:39;;;;;;;2.15;1.02;;;18.40;55.10;;;;;;4922128;29;20658;-84
2023/01/11 11:05:34;;;;;;;1.63;0.90;;;18.30;55.10;;;;;;4905070;29;20178;-85
2023/01/11 11:08:25;;;;;;;;;;;;;;;;;;;;;
2023/01/11 11:11:02;;;;;;;4.40;1.00;;;18.40;55.20;;;;;;4891046;29;20665;-86
2023/01/11 11:13:51;;;;;;;1.60;0.80;;;18.30;55.20;;;;;;4874141;29;20172;-85
2023/01/11 11:16:33;;;;;;;2.65;0.93;;;18.40;55.20;;;;;;4891303;29;20195;-85
2023/01/11 11:19:00;;;;;;;3.83;0.90;;;18.40;55.10;;;;;;4889774;29;20202;-86
2023/01/11 11:21:34;;;;;;;2.35;1.02;;;18.40;55.00;;;;;;4901990;29;20185;-86
2023/01/11 11:24:04;;;;;;;2.63;1.00;;;18.30;55.00;;;;;;4930811;29;20193;-85
2023/01/11 11:26:37;;;;;;;4.00;0.80;;;18.50;55.00;;;;;;4949968;29;20184;-85
2023/01/11 11:29:05;;;;;;;2.45;1.35;;;18.40;54.90;;;;;;4919521;29;20218;-86
2023/01/11 11:31:41;;;;;;;2.80;0.95;;;18.40;54.90;;;;;;4892082;29;20186;-85
2023/01/11 11:34:20;;;;;;;4.25;1.00;;;18.40;54.80;;;;;;4891977;29;20186;-85
2023/01/11 11:37:00;;;;;;;2.35;1.02;;;18.40;54.90;;;;;;4899656;29;20262;-85
2023/01/11 11:39:29;;;;;;;2.97;0.95;;;18.40;54.80;;;;;;4872955;29;20222;-85
2023/01/11 11:42:08;;;;;;;3.15;0.93;;;18.40;54.80;;;;;;4893509;29;20194;-85
2023/01/11 11:44:42;;;;;;;1.52;0.95;;;18.40;54.80;;;;;;4922715;29;20196;-86
2023/01/11 11:47:16;;;;;;;2.55;0.98;;;18.40;54.70;;;;;;4908683;29;20218;-84
2023/01/11 11:49:46;;;;;;;1.48;0.90;;;18.40;54.70;;;;;;4902696;29;20192;-85
2023/01/11 11:52:16;;;;;;;6.35;1.20;;;18.40;54.60;;;;;;4934824;29;20532;-83
2023/01/11 11:54:52;;;;;;;1.15;0.77;;;18.50;54.50;;;;;;4968313;28;20235;-85
2023/01/11 11:57:37;;;;;;;1.98;1.00;;;18.50;54.50;;;;;;4967679;28;20511;-85
2023/01/11 12:00:08;;;;;;;3.13;1.00;;;18.50;54.50;;;;;;4931418;28;20192;-85
2023/01/11 12:02:44;;;;;;;2.05;0.77;;;18.40;54.50;;;;;;4946011;29;20249;-86
2023/01/11 12:05:11;;;;;;;1.52;0.90;;;18.50;54.50;;;;;;4914360;29;20197;-86
2023/01/11 12:07:42;;;;;;;0.88;0.68;;;18.50;54.60;;;;;;4928616;29;20220;-85
2023/01/11 12:10:12;;;;;;;1.52;0.98;;;18.50;54.50;;;;;;4931259;28;20292;-85
2023/01/11 12:12:57;;;;;;;2.35;0.80;;;18.50;54.60;;;;;;4937973;28;20208;-85
2023/01/11 12:15:37;;;;;;;1.27;1.00;;;18.50;54.60;;;;;;4910169;29;20329;-86
2023/01/11 12:18:24;;;;;;;1.45;0.80;;;18.40;54.50;;;;;;4880684;29;20255;-85
2023/01/11 12:20:54;;;;;;;1.40;0.70;;;18.40;54.60;;;;;;4888336;29;20183;-86
2023/01/11 12:23:28;;;;;;;1.55;0.77;;;18.40;54.60;;;;;;4853125;29;20234;-85
2023/01/11 12:26:09;;;;;;;1.58;0.88;;;18.40;54.60;;;;;;4873375;29;20195;-86
2023/01/11 12:28:55;;;;;;;2.33;0.80;;;18.50;54.70;;;;;;4873137;29;20212;-85
2023/01/11 12:31:49;;;;;;;1.20;0.70;;;18.50;54.60;;;;;;4875844;29;20609;-85
2023/01/11 12:34:31;;;;;;;2.08;1.00;;;18.50;54.60;;;;;;4890525;29;20587;-85
2023/01/11 12:37:19;;;;;;;5.10;0.80;;;18.50;54.60;;;;;;4890609;29;20183;-86
2023/01/11 12:39:57;;;;;;;1.25;0.90;;;18.50;54.50;;;;;;4860715;29;20210;-85
2023/01/11 12:42:48;;;;;;;0.60;0.50;;;18.50;54.50;;;;;;4889758;29;20179;-86
2023/01/11 12:45:38;;;;;;;1.00;0.70;;;18.50;54.40;;;;;;4890755;29;20232;-86
2023/01/11 12:48:41;;;;;;;1.48;1.08;;;18.50;54.40;;;;;;4902381;29;20225;-86
2023/01/11 12:51:44;;;;;;;1.38;0.60;;;18.50;54.40;;;;;;4914277;29;20185;-86
2023/01/11 12:54:51;;;;;;;2.13;1.10;;;18.50;54.80;;;;;;4929844;28;20753;-86
2023/01/11 12:58:11;;;;;;;2.45;0.65;;;18.50;55.10;;;;;;4956172;28;20208;-85
2023/01/11 13:04:30;;;;;;;;;;;;;;;;;;;;;
2023/01/11 13:07:20;;;;;;;1.30;1.00;;;18.50;54.70;;;;;;4852367;29;20285;-83
2023/01/11 13:09:53;;;;;;;1.05;0.70;;;18.50;54.70;;;;;;4830926;29;20332;-84
2023/01/11 13:12:45;;;;;;;2.20;0.70;;;18.50;54.70;;;;;;4831781;29;20272;-84
2023/01/11 13:15:50;;;;;;;1.23;0.73;;;18.50;54.80;;;;;;4817677;29;20185;-86
2023/01/11 13:18:19;;;;;;;1.10;0.75;;;18.50;54.70;;;;;;4836459;29;20196;-83
2023/01/11 13:21:01;;;;;;;1.17;0.90;;;18.50;54.60;;;;;;4829799;29;20541;-84
2023/01/11 13:24:13;;;;;;;1.70;0.95;;;18.40;55.20;;;;;;4844721;29;20228;-84
2023/01/11 13:26:44;;;;;;;2.13;0.75;;;18.50;54.40;;;;;;4800793;29;20224;-84
2023/01/11 13:29:30;;;;;;;1.15;0.90;;;18.50;54.40;;;;;;4830576;29;20273;-83
2023/01/11 13:31:57;;;;;;;1.63;0.70;;;18.40;54.30;;;;;;4831283;29;20189;-85
2023/01/11 13:34:38;;;;;;;1.48;0.90;;;18.50;54.40;;;;;;4839608;29;20184;-82
2023/01/11 13:37:15;;;;;;;3.38;0.90;;;18.50;54.30;;;;;;4870557;29;20187;-84
2023/01/11 13:39:52;;;;;;;1.00;0.80;;;18.40;54.20;;;;;;4868642;29;20207;-82
2023/01/11 13:42:21;;;;;;;1.10;0.60;;;18.50;54.10;;;;;;4881758;29;20163;-83
2023/01/11 13:44:50;;;;;;;0.73;0.70;;;18.50;54.00;;;;;;4882068;29;20187;-83
2023/01/11 13:47:21;;;;;;;1.02;0.70;;;18.50;54.00;;;;;;4919467;29;20629;-84
2023/01/11 13:50:18;;;;;;;0.85;0.60;;;18.50;54.10;;;;;;4903974;29;20553;-85
2023/01/11 13:53:18;;;;;;;1.13;0.60;;;18.50;54.10;;;;;;4919792;29;20233;-83
2023/01/11 13:56:07;;;;;;;0.65;0.60;;;18.50;54.10;;;;;;4910090;29;20174;-84
2023/01/11 13:59:10;;;;;;;0.90;0.65;;;18.50;54.00;;;;;;4922951;29;20170;-85
2023/01/11 14:02:08;;;;;;;0.90;0.70;;;18.60;54.00;;;;;;4909867;29;20182;-85
2023/01/11 14:04:44;;;;;;;1.17;0.70;;;18.60;54.00;;;;;;5002648;28;20235;-86
2023/01/11 14:07:13;;;;;;;0.85;0.68;;;18.60;53.90;;;;;;4953251;28;20203;-83
2023/01/11 14:10:08;;;;;;;1.08;0.80;;;18.50;54.10;;;;;;4965716;28;20164;-83
2023/01/11 14:12:49;;;;;;;1.15;0.80;;;18.50;54.10;;;;;;4952078;28;20176;-83
2023/01/11 14:15:19;;;;;;;1.55;0.70;;;18.50;54.00;;;;;;4964866;28;20252;-86
2023/01/11 14:18:07;;;;;;;0.93;0.88;;;18.50;54.80;;;;;;4962840;28;20208;-85
2023/01/11 14:20:51;;;;;;;1.45;0.80;;;18.50;54.60;;;;;;4963327;28;20168;-84
2023/01/11 14:23:19;;;;;;;1.05;0.60;;;18.60;53.90;;;;;;4978426;28;20164;-83
2023/01/11 14:26:18;;;;;;;0.85;0.68;;;18.60;53.80;;;;;;4945837;28;20153;-87
2023/01/11 14:29:10;;;;;;;0.73;0.70;;;18.50;53.70;;;;;;4962960;28;20184;-85
2023/01/11 14:31:58;;;;;;;1.70;0.60;;;18.60;53.90;;;;;;4985322;28;20183;-84
2023/01/11 14:34:37;;;;;;;0.80;0.73;;;18.60;53.90;;;;;;4980289;28;20164;-85
2023/01/11 14:37:28;;;;;;;0.85;0.80;;;18.50;53.90;;;;;;4989995;28;20211;-83
2023/01/11 14:40:13;;;;;;;0.60;0.60;;;18.60;53.90;;;;;;4993755;28;20178;-85
2023/01/11 14:43:16;;;;;;;0.90;0.73;;;18.60;53.90;;;;;;4992172;28;20158;-84
2023/01/11 14:46:04;;;;;;;0.98;0.60;;;18.60;54.10;;;;;;5010140;28;20163;-83
2023/01/11 14:48:54;;;;;;;0.50;0.50;;;18.50;54.00;;;;;;4989941;28;20202;-84
2023/01/11 14:51:40;;;;;;;0.73;0.60;;;18.50;53.90;;;;;;4993329;28;20155;-83
2023/01/11 14:54:26;;;;;;;1.15;0.80;;;18.50;54.00;;;;;;5008220;28;20578;-85
2023/01/11 14:56:54;;;;;;;0.73;0.57;;;18.50;53.90;;;;;;4992563;28;20178;-85
2023/01/11 14:59:32;;;;;;;0.70;0.70;;;18.50;54.00;;;;;;4976513;28;20562;-84
2023/01/11 15:02:13;;;;;;;2.05;0.70;;;18.50;54.00;;;;;;4990369;28;20265;-85